Skip Navigation LinksHome page > Weather > Current weather Skip Navigation Links

Current Weather

Alert, Nunavut

For information only: do not use for flight planning or navigation.
Latest weather
Observation time Thursday, November 27, 2014 3:00 PM EST
Local time Thursday, November 27, 2014 8:12 PM EST
Flight conditions Visual Meteorological Conditions
Winds
Wind direction South (170°)
Wind speed 2 mph
Visibility 15 mi.
Sky condition
Ceiling unlimited
Cloud layer few clouds 11,000 ft.
Temperature -22°F
Dewpoint -29°F
Altimeter 29.73 in.Hg
Derived measurements
Relative humidity 68%
Wind chill -22°F
Density altitude -5668 ft.
Sea-level pressure 29.74 in.Hg
Remarks
Last observation of the day.
METAR CYLT 272000Z 17002KT 15SM FEW110 M30/M34 A2973 RMK AC1 LAST OBS/NXT 281300 UTC SLP072

Settings

Location code

InnerDrive.Weather 4.0.5399.0 Release CLR 4.0.30319.34014
Copyright ©2014 Inner Drive Technology. All rights reserved. Portions Copyright ©1986-2014 David Braverman.

Find weather

Site navigation


Skip Navigation Links

Place info

Page info

PayPal - The safer, easier way to pay online!

Return home.

Copyright ©2014 Inner Drive Technology. Purveyors of fine, hand-crafted computer software. Page printed 2014-11-28T01:12:15 UTC.